Time;durP1;ratioP1;P1;durP2;ratioP2;P2;SDS_P1;SDS_P2;PMS_P1;PMS_P2;Temp;Humidity;BMP_temperature;BMP_pressure;BME280_temperature;BME280_humidity;BME280_pressure;Samples;Min_cycle;Max_cycle;Signal;HPM_P1;HPM_P2
2022/01/05 00:02:17;;;;;;;11.43;10.65;;;;;;;;;;5001499;28;20041;-69
2022/01/05 00:04:43;;;;;;;11.57;10.77;;;;;;;;;;5004779;28;20026;-68
2022/01/05 00:07:08;;;;;;;11.88;11.13;;;;;;;;;;5006422;28;20041;-68
2022/01/05 00:09:34;;;;;;;11.05;10.45;;;;;;;;;;4998918;28;20426;-68
2022/01/05 00:12:00;;;;;;;11.10;10.40;;;;;;;;;;5008154;28;20038;-69
2022/01/05 00:14:26;;;;;;;10.63;10.00;;;;;;;;;;4991151;28;20038;-69
2022/01/05 00:16:51;;;;;;;10.88;10.27;;;;;;;;;;4998753;28;20038;-68
2022/01/05 00:19:17;;;;;;;10.77;10.18;;;;;;;;;;5000843;28;20072;-68
2022/01/05 00:21:43;;;;;;;11.05;10.45;;;;;;;;;;5002108;28;20041;-68
2022/01/05 00:24:09;;;;;;;10.88;10.27;;;;;;;;;;5000251;28;20045;-69
2022/01/05 00:26:35;;;;;;;10.95;10.35;;;;;;;;;;5001050;28;20061;-69
2022/01/05 00:29:02;;;;;;;10.95;10.35;;;;;;;;;;5000291;28;20034;-69
2022/01/05 00:31:28;;;;;;;11.40;10.70;;;;;;;;;;4996879;28;20053;-68
2022/01/05 00:33:55;;;;;;;11.10;10.45;;;;;;;;;;4999295;28;20104;-69
2022/01/05 00:36:20;;;;;;;10.63;10.02;;;;;;;;;;5000725;28;20117;-69
2022/01/05 00:38:47;;;;;;;10.75;10.15;;;;;;;;;;5002167;28;20120;-69
2022/01/05 00:41:13;;;;;;;10.68;10.07;;;;;;;;;;5002577;28;20033;-69
2022/01/05 00:43:40;;;;;;;10.20;9.68;;;;;;;;;;5000529;28;20099;-69
2022/01/05 00:46:06;;;;;;;11.20;10.60;;;;;;;;;;5001376;28;20101;-69
2022/01/05 00:48:34;;;;;;;10.68;10.07;;;;;;;;;;4999887;28;20038;-69
2022/01/05 00:51:06;;;;;;;10.70;10.10;;;;;;;;;;5001269;28;20041;-69
2022/01/05 00:53:33;;;;;;;10.93;10.32;;;;;;;;;;4999722;28;20400;-69
2022/01/05 00:55:59;;;;;;;10.73;10.13;;;;;;;;;;5002934;28;20038;-69
2022/01/05 00:58:25;;;;;;;11.18;10.57;;;;;;;;;;5001874;28;20072;-69
2022/01/05 01:00:51;;;;;;;10.95;10.35;;;;;;;;;;4997537;28;20033;-69
2022/01/05 01:03:17;;;;;;;11.30;10.60;;;;;;;;;;5002156;28;20528;-69
2022/01/05 01:05:42;;;;;;;11.23;10.60;;;;;;;;;;5001114;28;20073;-69
2022/01/05 01:08:09;;;;;;;11.13;10.50;;;;;;;;;;5002875;28;20038;-69
2022/01/05 01:10:35;;;;;;;11.00;10.40;;;;;;;;;;5003261;28;20160;-69
2022/01/05 01:13:01;;;;;;;12.43;9.95;;;;;;;;;;4999639;28;20113;-69
2022/01/05 01:15:26;;;;;;;9.95;9.45;;;;;;;;;;5001113;28;20030;-69
2022/01/05 01:17:52;;;;;;;10.48;9.88;;;;;;;;;;5001285;28;20493;-69
2022/01/05 01:20:20;;;;;;;10.23;9.73;;;;;;;;;;5000346;28;20527;-69
2022/01/05 01:22:46;;;;;;;11.07;10.38;;;;;;;;;;5001111;28;20179;-69
2022/01/05 01:25:12;;;;;;;10.60;10.00;;;;;;;;;;5000067;28;20041;-69
2022/01/05 01:27:40;;;;;;;10.18;9.68;;;;;;;;;;5002014;28;20033;-70
2022/01/05 01:30:06;;;;;;;10.10;9.50;;;;;;;;;;4997002;28;20076;-70
2022/01/05 01:32:32;;;;;;;10.40;9.82;;;;;;;;;;5000127;28;20440;-70
2022/01/05 01:34:58;;;;;;;10.88;10.27;;;;;;;;;;5013397;28;20042;-70
2022/01/05 01:37:24;;;;;;;10.90;10.25;;;;;;;;;;4999342;28;20042;-70
2022/01/05 01:39:49;;;;;;;10.35;9.82;;;;;;;;;;5003961;28;20065;-70
2022/01/05 01:42:15;;;;;;;9.80;9.30;;;;;;;;;;5001166;28;20036;-70
2022/01/05 01:44:41;;;;;;;10.52;9.82;;;;;;;;;;4998372;28;20025;-70
2022/01/05 01:47:06;;;;;;;10.00;9.50;;;;;;;;;;5000202;28;20029;-70
2022/01/05 01:49:32;;;;;;;10.45;9.85;;;;;;;;;;5000472;28;20612;-70
2022/01/05 01:51:57;;;;;;;10.35;9.85;;;;;;;;;;5003250;28;20043;-70
2022/01/05 01:54:23;;;;;;;10.25;9.75;;;;;;;;;;4999231;28;20375;-70
2022/01/05 01:56:50;;;;;;;10.00;9.50;;;;;;;;;;4999944;28;20062;-70
2022/01/05 01:59:16;;;;;;;10.50;9.90;;;;;;;;;;4999852;28;20113;-70
2022/01/05 02:01:42;;;;;;;10.68;9.98;;;;;;;;;;4998106;28;20041;-70
2022/01/05 02:04:07;;;;;;;10.80;10.20;;;;;;;;;;5004791;28;20038;-70
2022/01/05 02:06:33;;;;;;;11.93;11.13;;;;;;;;;;5000510;28;20090;-71
2022/01/05 02:09:00;;;;;;;10.70;10.10;;;;;;;;;;5002270;28;20261;-70
2022/01/05 02:11:25;;;;;;;10.65;10.05;;;;;;;;;;5000465;28;20116;-70
2022/01/05 02:13:52;;;;;;;10.60;10.07;;;;;;;;;;4998925;28;20589;-71
2022/01/05 02:16:19;;;;;;;10.80;10.20;;;;;;;;;;4999604;28;20125;-71
2022/01/05 02:19:06;;;;;;;10.77;10.18;;;;;;;;;;5018415;28;20092;-70
2022/01/05 02:21:36;;;;;;;10.38;9.88;;;;;;;;;;5000272;28;20514;-71
2022/01/05 02:24:04;;;;;;;10.63;9.93;;;;;;;;;;5000020;28;20037;-71
2022/01/05 02:26:29;;;;;;;10.30;9.80;;;;;;;;;;5002318;28;20038;-71
2022/01/05 02:28:55;;;;;;;10.43;9.82;;;;;;;;;;4998893;28;20092;-71
2022/01/05 02:31:22;;;;;;;10.50;9.90;;;;;;;;;;5000316;28;20088;-71
2022/01/05 02:33:48;;;;;;;10.10;9.60;;;;;;;;;;5004678;28;20049;-71
2022/01/05 02:36:18;;;;;;;10.30;9.70;;;;;;;;;;5002736;28;20121;-70
2022/01/05 02:38:44;;;;;;;10.48;9.98;;;;;;;;;;5003558;28;20113;-71
2022/01/05 02:41:11;;;;;;;10.60;10.00;;;;;;;;;;5003178;28;20088;-71
2022/01/05 02:43:40;;;;;;;10.43;9.82;;;;;;;;;;5003300;28;20038;-71
2022/01/05 02:46:11;;;;;;;10.23;9.73;;;;;;;;;;5001982;28;20034;-71
2022/01/05 02:48:36;;;;;;;10.70;10.10;;;;;;;;;;5002855;28;20404;-71
2022/01/05 02:51:02;;;;;;;10.50;9.90;;;;;;;;;;5003846;28;20109;-71
2022/01/05 02:53:28;;;;;;;10.00;9.50;;;;;;;;;;5002759;28;20080;-71
2022/01/05 02:55:53;;;;;;;10.57;9.98;;;;;;;;;;5004402;28;20034;-71
2022/01/05 02:58:19;;;;;;;9.82;9.32;;;;;;;;;;5007445;28;20231;-71
2022/01/05 03:00:45;;;;;;;9.70;9.13;;;;;;;;;;5002691;28;20034;-71
2022/01/05 03:03:11;;;;;;;9.90;9.40;;;;;;;;;;5004916;28;20221;-71
2022/01/05 03:05:37;;;;;;;10.00;9.50;;;;;;;;;;5010783;28;20477;-71
2022/01/05 03:08:03;;;;;;;10.55;9.77;;;;;;;;;;5010651;28;20485;-70
2022/01/05 03:10:29;;;;;;;10.18;9.68;;;;;;;;;;5007784;28;20045;-71
2022/01/05 03:12:54;;;;;;;10.30;9.80;;;;;;;;;;5008304;28;20038;-70
2022/01/05 03:15:20;;;;;;;10.32;9.73;;;;;;;;;;5010279;28;20076;-71
2022/01/05 03:17:46;;;;;;;9.73;9.23;;;;;;;;;;5010269;28;20088;-71
2022/01/05 03:20:14;;;;;;;9.75;9.25;;;;;;;;;;4996226;28;20038;-71
2022/01/05 03:22:41;;;;;;;10.10;9.60;;;;;;;;;;4999439;28;20042;-71
2022/01/05 03:25:15;;;;;;;10.45;9.65;;;;;;;;;;5023806;28;20061;-71
2022/01/05 03:27:42;;;;;;;10.30;9.80;;;;;;;;;;5007888;28;20045;-71
2022/01/05 03:30:08;;;;;;;10.40;9.80;;;;;;;;;;4979180;28;20076;-71
2022/01/05 03:32:45;;;;;;;9.82;9.32;;;;;;;;;;5008633;28;20034;-71
2022/01/05 03:35:11;;;;;;;9.88;9.27;;;;;;;;;;5009898;28;20044;-71
2022/01/05 03:37:36;;;;;;;10.40;9.80;;;;;;;;;;5006547;28;20030;-71
2022/01/05 03:40:03;;;;;;;10.18;9.60;;;;;;;;;;5001054;28;20480;-71
2022/01/05 03:42:29;;;;;;;10.05;9.55;;;;;;;;;;5008382;28;20432;-71
2022/01/05 03:44:54;;;;;;;9.43;8.93;;;;;;;;;;5008382;28;20048;-71
2022/01/05 03:47:20;;;;;;;9.60;9.10;;;;;;;;;;5002574;28;20026;-71
2022/01/05 03:49:45;;;;;;;9.23;8.73;;;;;;;;;;5009902;28;20046;-71
2022/01/05 03:52:11;;;;;;;9.57;9.07;;;;;;;;;;5009277;28;20033;-71
2022/01/05 03:54:37;;;;;;;9.75;9.25;;;;;;;;;;5007648;28;20026;-71
2022/01/05 03:57:03;;;;;;;9.80;9.30;;;;;;;;;;5003924;28;20040;-71
2022/01/05 03:59:28;;;;;;;9.80;9.30;;;;;;;;;;5002807;28;20052;-71
2022/01/05 04:01:54;;;;;;;9.70;9.20;;;;;;;;;;4995648;28;20034;-71
2022/01/05 04:04:20;;;;;;;9.60;9.10;;;;;;;;;;4995955;28;20038;-71
2022/01/05 04:06:45;;;;;;;10.00;9.40;;;;;;;;;;5004512;28;20046;-71
2022/01/05 04:09:11;;;;;;;9.45;8.95;;;;;;;;;;5000792;28;20061;-72
2022/01/05 04:11:36;;;;;;;9.60;9.10;;;;;;;;;;5004028;28;20041;-72
2022/01/05 04:14:02;;;;;;;9.93;9.43;;;;;;;;;;5009421;28;20073;-72
2022/01/05 04:16:28;;;;;;;9.73;9.23;;;;;;;;;;5009639;28;20379;-72
2022/01/05 04:18:53;;;;;;;9.55;9.05;;;;;;;;;;4998981;28;20114;-71
2022/01/05 04:21:19;;;;;;;9.60;9.10;;;;;;;;;;5008662;28;20034;-71
2022/01/05 04:23:45;;;;;;;9.93;9.43;;;;;;;;;;5008682;28;20049;-72
2022/01/05 04:26:10;;;;;;;9.27;8.77;;;;;;;;;;5006393;28;20057;-72
2022/01/05 04:28:37;;;;;;;9.65;9.05;;;;;;;;;;5001085;28;20037;-72
2022/01/05 04:31:02;;;;;;;9.40;8.90;;;;;;;;;;4996752;28;20049;-72
2022/01/05 04:33:28;;;;;;;9.60;9.10;;;;;;;;;;4999776;28;20054;-72
2022/01/05 04:35:54;;;;;;;9.40;8.90;;;;;;;;;;5003687;28;20029;-71
2022/01/05 04:38:19;;;;;;;9.65;9.15;;;;;;;;;;5008656;28;20041;-71
2022/01/05 04:40:45;;;;;;;9.50;9.00;;;;;;;;;;5007778;28;20060;-72
2022/01/05 04:43:11;;;;;;;9.35;8.85;;;;;;;;;;5001573;28;20148;-71
2022/01/05 04:45:36;;;;;;;9.00;8.50;;;;;;;;;;5002311;28;20149;-72
2022/01/05 04:48:03;;;;;;;9.30;8.80;;;;;;;;;;5006946;28;20053;-72
2022/01/05 04:50:29;;;;;;;9.13;8.60;;;;;;;;;;4999884;28;20053;-71
2022/01/05 04:52:54;;;;;;;8.57;8.10;;;;;;;;;;4992146;28;20522;-72
2022/01/05 04:55:20;;;;;;;8.60;8.20;;;;;;;;;;5004924;28;20050;-72
2022/01/05 04:57:46;;;;;;;9.27;8.68;;;;;;;;;;5004187;28;20064;-72
2022/01/05 05:00:12;;;;;;;9.10;8.60;;;;;;;;;;5011987;28;20041;-72
2022/01/05 05:02:37;;;;;;;9.40;8.90;;;;;;;;;;5006294;28;20049;-72
2022/01/05 05:05:03;;;;;;;9.40;8.90;;;;;;;;;;5007194;28;20026;-72
2022/01/05 05:07:29;;;;;;;9.20;8.70;;;;;;;;;;5005692;28;20045;-72
2022/01/05 05:09:54;;;;;;;9.40;8.90;;;;;;;;;;4994562;28;20382;-72
2022/01/05 05:12:20;;;;;;;9.23;8.73;;;;;;;;;;5006149;28;20034;-72
2022/01/05 05:14:46;;;;;;;9.25;8.75;;;;;;;;;;5008136;28;20052;-72
2022/01/05 05:17:11;;;;;;;9.20;8.70;;;;;;;;;;5006246;28;20095;-72
2022/01/05 05:19:37;;;;;;;9.60;8.90;;;;;;;;;;4996156;28;20362;-72
2022/01/05 05:22:03;;;;;;;9.10;8.50;;;;;;;;;;5000161;28;20088;-72
2022/01/05 05:24:28;;;;;;;9.88;9.10;;;;;;;;;;4997124;28;20052;-71
2022/01/05 05:26:54;;;;;;;8.75;8.25;;;;;;;;;;4997949;28;20447;-71
2022/01/05 05:29:20;;;;;;;9.10;8.60;;;;;;;;;;4997089;28;20062;-72
2022/01/05 05:31:45;;;;;;;9.40;8.90;;;;;;;;;;4980388;28;20076;-71
2022/01/05 05:34:11;;;;;;;8.55;8.15;;;;;;;;;;5001943;28;20506;-72
2022/01/05 05:36:36;;;;;;;9.05;8.55;;;;;;;;;;4998688;28;20026;-72
2022/01/05 05:39:02;;;;;;;9.10;8.48;;;;;;;;;;5005970;28;20497;-71
2022/01/05 05:41:28;;;;;;;9.30;8.80;;;;;;;;;;5007274;28;20467;-71
2022/01/05 05:43:53;;;;;;;10.18;9.57;;;;;;;;;;4999554;28;20034;-71
2022/01/05 05:46:19;;;;;;;10.98;10.27;;;;;;;;;;5001160;28;20029;-71
2022/01/05 05:48:45;;;;;;;11.32;10.52;;;;;;;;;;5007901;28;20042;-71
2022/01/05 05:51:11;;;;;;;11.32;10.43;;;;;;;;;;5006385;28;20040;-71
2022/01/05 05:53:36;;;;;;;11.90;11.05;;;;;;;;;;5003127;28;20508;-71
2022/01/05 05:56:02;;;;;;;12.07;11.27;;;;;;;;;;5007683;28;20037;-71
2022/01/05 05:58:28;;;;;;;13.23;12.07;;;;;;;;;;5003479;28;20042;-71
2022/01/05 06:00:54;;;;;;;12.20;11.23;;;;;;;;;;5001308;28;20034;-71
2022/01/05 06:03:19;;;;;;;12.02;11.13;;;;;;;;;;5005294;28;20121;-71
2022/01/05 06:05:45;;;;;;;12.20;11.20;;;;;;;;;;5008045;28;20119;-71
2022/01/05 06:08:11;;;;;;;12.32;11.32;;;;;;;;;;5021283;28;20561;-71
2022/01/05 06:10:36;;;;;;;13.02;11.85;;;;;;;;;;5007014;28;20045;-71
2022/01/05 06:13:02;;;;;;;13.10;11.93;;;;;;;;;;5010244;28;20038;-70
2022/01/05 06:15:28;;;;;;;14.55;11.93;;;;;;;;;;5009486;28;20034;-70
2022/01/05 06:17:53;;;;;;;13.57;12.27;;;;;;;;;;5005258;28;20287;-70
2022/01/05 06:20:19;;;;;;;12.98;11.88;;;;;;;;;;5009860;28;20123;-70
2022/01/05 06:22:44;;;;;;;13.88;12.13;;;;;;;;;;5003841;28;20509;-70
2022/01/05 06:25:11;;;;;;;11.77;10.88;;;;;;;;;;4999916;28;20520;-70
2022/01/05 06:27:38;;;;;;;12.88;11.60;;;;;;;;;;5000365;28;20034;-70
2022/01/05 06:30:06;;;;;;;13.02;12.00;;;;;;;;;;5000087;28;20378;-70
2022/01/05 06:32:34;;;;;;;13.80;12.52;;;;;;;;;;4999042;28;20037;-70
2022/01/05 06:35:01;;;;;;;13.95;12.75;;;;;;;;;;5003925;28;20117;-70
2022/01/05 06:37:26;;;;;;;13.75;11.85;;;;;;;;;;5005827;28;20038;-70
2022/01/05 06:39:52;;;;;;;13.02;11.90;;;;;;;;;;5009364;28;20048;-70
2022/01/05 06:42:18;;;;;;;13.38;12.27;;;;;;;;;;4998819;28;20217;-70
2022/01/05 06:44:43;;;;;;;12.80;11.73;;;;;;;;;;5008379;28;20076;-70
2022/01/05 06:47:10;;;;;;;14.55;12.85;;;;;;;;;;4993445;28;20037;-70
2022/01/05 06:49:37;;;;;;;12.73;11.65;;;;;;;;;;5004846;28;20489;-70
2022/01/05 06:52:03;;;;;;;13.00;11.80;;;;;;;;;;5003303;28;20440;-70
2022/01/05 06:54:29;;;;;;;13.27;12.15;;;;;;;;;;5009585;28;20076;-70
2022/01/05 06:56:55;;;;;;;11.35;10.45;;;;;;;;;;5010320;28;20052;-70
2022/01/05 06:59:21;;;;;;;12.55;11.25;;;;;;;;;;4996901;28;20048;-70
2022/01/05 07:01:47;;;;;;;11.02;10.20;;;;;;;;;;4997172;28;20466;-69
2022/01/05 07:04:12;;;;;;;11.63;10.57;;;;;;;;;;5000996;28;20036;-69
2022/01/05 07:06:38;;;;;;;11.35;10.45;;;;;;;;;;5009815;28;20101;-69
2022/01/05 07:09:05;;;;;;;11.05;10.30;;;;;;;;;;5009933;28;20095;-69
2022/01/05 07:11:32;;;;;;;10.52;9.63;;;;;;;;;;5008023;28;20049;-69
2022/01/05 07:13:58;;;;;;;10.93;10.02;;;;;;;;;;5004000;28;20042;-69
2022/01/05 07:16:25;;;;;;;12.05;11.05;;;;;;;;;;5008213;28;20535;-69
2022/01/05 07:18:50;;;;;;;11.70;10.52;;;;;;;;;;5013140;28;20037;-69
2022/01/05 07:21:16;;;;;;;12.30;11.27;;;;;;;;;;5002786;28;20489;-69
2022/01/05 07:23:41;;;;;;;12.77;11.60;;;;;;;;;;5002863;28;20048;-69
2022/01/05 07:26:07;;;;;;;13.38;11.90;;;;;;;;;;5008136;28;20030;-69
2022/01/05 07:28:32;;;;;;;14.07;12.60;;;;;;;;;;5043120;22;20052;-67
2022/01/05 07:30:58;;;;;;;13.15;12.10;;;;;;;;;;5033645;28;20037;-67
2022/01/05 07:33:24;;;;;;;13.40;12.27;;;;;;;;;;5042919;28;20037;-67
2022/01/05 07:35:51;;;;;;;13.55;12.25;;;;;;;;;;5047318;28;20121;-67
2022/01/05 07:38:16;;;;;;;14.82;13.43;;;;;;;;;;5044565;28;20041;-67
2022/01/05 07:40:42;;;;;;;14.35;13.05;;;;;;;;;;5045128;28;20033;-67
2022/01/05 07:43:07;;;;;;;14.45;13.15;;;;;;;;;;5038231;28;20041;-67
2022/01/05 07:45:36;;;;;;;14.35;13.05;;;;;;;;;;5048035;28;20082;-67
2022/01/05 07:48:03;;;;;;;12.32;11.32;;;;;;;;;;5039899;28;20033;-67
2022/01/05 07:50:29;;;;;;;12.55;11.43;;;;;;;;;;5041038;28;20526;-67
2022/01/05 07:52:54;;;;;;;11.40;10.70;;;;;;;;;;5039358;28;20119;-67
2022/01/05 07:55:20;;;;;;;11.85;10.95;;;;;;;;;;5045764;28;20373;-67
2022/01/05 07:57:46;;;;;;;11.98;10.90;;;;;;;;;;5040440;28;20052;-66
2022/01/05 08:00:12;;;;;;;12.07;10.50;;;;;;;;;;5046909;28;20035;-67
2022/01/05 08:02:38;;;;;;;11.80;11.00;;;;;;;;;;5040086;28;20098;-67
2022/01/05 08:05:04;;;;;;;12.13;11.20;;;;;;;;;;5045657;28;20025;-67
2022/01/05 08:07:30;;;;;;;12.20;11.23;;;;;;;;;;5034049;28;20133;-67
2022/01/05 08:09:55;;;;;;;12.15;11.20;;;;;;;;;;5043697;28;20116;-67
2022/01/05 08:12:21;;;;;;;12.20;11.10;;;;;;;;;;5040531;28;20059;-67
2022/01/05 08:14:47;;;;;;;12.45;11.30;;;;;;;;;;5040716;28;20140;-66
2022/01/05 08:17:12;;;;;;;12.25;11.25;;;;;;;;;;5042968;28;20078;-66
2022/01/05 08:19:38;;;;;;;12.48;11.57;;;;;;;;;;5046264;28;20041;-66
2022/01/05 08:22:04;;;;;;;17.02;12.43;;;;;;;;;;5036395;28;20058;-68
2022/01/05 08:24:29;;;;;;;13.43;12.30;;;;;;;;;;5032133;28;20086;-67
2022/01/05 08:26:55;;;;;;;14.35;12.88;;;;;;;;;;5044191;28;20119;-67
2022/01/05 08:29:20;;;;;;;12.18;10.85;;;;;;;;;;5044869;28;20040;-67
2022/01/05 08:31:46;;;;;;;12.23;11.02;;;;;;;;;;5041379;28;20087;-68
2022/01/05 08:34:12;;;;;;;11.98;10.70;;;;;;;;;;5034973;28;20441;-67
2022/01/05 08:36:37;;;;;;;11.48;10.48;;;;;;;;;;5036076;28;20452;-68
2022/01/05 08:39:03;;;;;;;11.82;10.73;;;;;;;;;;5027638;28;20042;-68
2022/01/05 08:41:29;;;;;;;12.90;10.00;;;;;;;;;;5039286;28;20066;-65
2022/01/05 08:43:55;;;;;;;11.82;10.05;;;;;;;;;;5044419;28;20037;-69
2022/01/05 08:46:21;;;;;;;11.50;10.30;;;;;;;;;;5038391;28;20029;-67
2022/01/05 08:48:47;;;;;;;11.93;10.80;;;;;;;;;;5028618;28;20041;-67
2022/01/05 08:51:12;;;;;;;10.80;9.90;;;;;;;;;;5036447;28;20698;-66
2022/01/05 08:53:38;;;;;;;11.45;10.55;;;;;;;;;;5040218;28;20138;-67
2022/01/05 08:56:05;;;;;;;12.15;10.93;;;;;;;;;;5028246;28;20082;-68
2022/01/05 08:58:31;;;;;;;11.45;10.45;;;;;;;;;;5034781;28;20037;-67
2022/01/05 09:00:56;;;;;;;11.55;10.45;;;;;;;;;;5044852;28;20124;-67
2022/01/05 09:03:22;;;;;;;11.43;10.40;;;;;;;;;;5033406;28;20548;-68
2022/01/05 09:05:47;;;;;;;11.85;10.73;;;;;;;;;;5028198;28;20037;-67
2022/01/05 09:08:14;;;;;;;13.73;10.45;;;;;;;;;;5041719;28;20082;-66
2022/01/05 09:10:40;;;;;;;11.52;10.35;;;;;;;;;;5038810;28;20068;-67
2022/01/05 09:13:06;;;;;;;11.20;10.35;;;;;;;;;;5028513;28;20076;-68
2022/01/05 09:15:34;;;;;;;11.65;10.57;;;;;;;;;;5040948;28;20036;-68
2022/01/05 09:18:00;;;;;;;11.80;10.50;;;;;;;;;;5044291;28;20067;-68
2022/01/05 09:20:25;;;;;;;11.77;10.77;;;;;;;;;;5032853;28;20042;-66
2022/01/05 09:22:51;;;;;;;11.57;10.35;;;;;;;;;;5040536;28;20037;-68
2022/01/05 09:25:18;;;;;;;10.73;9.80;;;;;;;;;;5047066;28;20041;-67
2022/01/05 09:27:45;;;;;;;12.00;10.93;;;;;;;;;;5045736;28;20029;-69
2022/01/05 09:30:14;;;;;;;11.90;10.93;;;;;;;;;;5040756;28;20472;-68
2022/01/05 09:32:40;;;;;;;12.20;11.05;;;;;;;;;;5034369;28;20136;-68
2022/01/05 09:35:08;;;;;;;12.75;11.45;;;;;;;;;;5032561;28;20032;-68
2022/01/05 09:37:38;;;;;;;10.77;9.85;;;;;;;;;;5049872;28;20438;-68
2022/01/05 09:42:49;;;;;;;12.82;11.25;;;;;;;;;;5047107;28;20029;-68
2022/01/05 09:45:15;;;;;;;12.35;11.40;;;;;;;;;;5031868;28;20112;-69
2022/01/05 09:47:55;;;;;;;13.00;11.70;;;;;;;;;;5030684;28;20064;-68
2022/01/05 09:50:23;;;;;;;11.07;10.00;;;;;;;;;;5040743;28;20037;-69
2022/01/05 09:52:49;;;;;;;11.75;10.77;;;;;;;;;;5032141;28;20029;-67
2022/01/05 09:55:16;;;;;;;11.55;9.90;;;;;;;;;;5040997;28;20037;-67
2022/01/05 09:57:45;;;;;;;10.45;9.68;;;;;;;;;;5038338;28;20151;-67
2022/01/05 10:00:13;;;;;;;11.65;10.50;;;;;;;;;;5045871;28;20037;-67
2022/01/05 10:02:41;;;;;;;11.38;10.38;;;;;;;;;;5040152;28;20039;-67
2022/01/05 10:05:11;;;;;;;10.30;9.50;;;;;;;;;;5045179;28;20033;-67
2022/01/05 10:07:38;;;;;;;9.82;9.00;;;;;;;;;;5043615;28;20094;-67
2022/01/05 10:10:05;;;;;;;10.70;9.70;;;;;;;;;;5043182;28;20112;-69
2022/01/05 10:12:31;;;;;;;10.40;9.55;;;;;;;;;;5045678;28;20033;-68
2022/01/05 10:14:56;;;;;;;11.18;10.18;;;;;;;;;;5040735;28;20598;-67
2022/01/05 10:17:30;;;;;;;11.68;10.57;;;;;;;;;;5043695;28;20041;-67
2022/01/05 10:20:05;;;;;;;10.98;9.90;;;;;;;;;;5041047;28;20323;-67
2022/01/05 10:22:44;;;;;;;10.98;9.93;;;;;;;;;;5047758;28;20041;-67
2022/01/05 10:25:23;;;;;;;12.43;11.23;;;;;;;;;;5040904;28;20063;-67
2022/01/05 10:27:59;;;;;;;10.75;9.75;;;;;;;;;;5038058;28;20119;-67
2022/01/05 10:30:41;;;;;;;10.57;9.57;;;;;;;;;;5040972;28;20039;-67
2022/01/05 10:33:07;;;;;;;12.80;11.60;;;;;;;;;;5046479;28;20119;-67
2022/01/05 10:35:34;;;;;;;11.10;10.07;;;;;;;;;;5050387;28;20032;-68
2022/01/05 10:38:03;;;;;;;12.35;10.85;;;;;;;;;;5045290;28;20531;-67
2022/01/05 10:40:33;;;;;;;12.00;10.77;;;;;;;;;;5053085;28;20068;-67
2022/01/05 10:43:07;;;;;;;10.75;9.95;;;;;;;;;;5031209;28;20096;-68
2022/01/05 10:45:43;;;;;;;12.25;10.35;;;;;;;;;;5035469;28;20029;-68
2022/01/05 10:48:10;;;;;;;11.77;10.65;;;;;;;;;;5040903;28;20049;-68
2022/01/05 10:50:36;;;;;;;14.23;10.65;;;;;;;;;;5040674;28;20404;-68
2022/01/05 10:53:03;;;;;;;10.90;9.98;;;;;;;;;;5043452;28;20033;-68
2022/01/05 10:55:30;;;;;;;11.35;10.23;;;;;;;;;;5045816;28;20508;-68
2022/01/05 10:58:03;;;;;;;15.23;11.35;;;;;;;;;;5042758;28;20048;-69
2022/01/05 11:00:34;;;;;;;15.27;10.80;;;;;;;;;;5045098;28;20544;-68
2022/01/05 11:03:00;;;;;;;12.48;11.25;;;;;;;;;;5038819;28;20099;-68
2022/01/05 11:05:26;;;;;;;13.82;12.00;;;;;;;;;;5036424;28;20252;-69
2022/01/05 11:08:06;;;;;;;11.40;10.43;;;;;;;;;;5030021;28;20052;-68
2022/01/05 11:10:31;;;;;;;16.05;11.32;;;;;;;;;;5036478;28;20132;-68
2022/01/05 11:12:57;;;;;;;11.73;10.73;;;;;;;;;;5030948;28;20176;-68
2022/01/05 11:15:32;;;;;;;13.43;10.00;;;;;;;;;;5043792;28;20037;-68
2022/01/05 11:18:11;;;;;;;11.20;10.15;;;;;;;;;;5043368;28;20427;-68
2022/01/05 11:21:01;;;;;;;11.48;10.20;;;;;;;;;;5039632;28;20071;-66
2022/01/05 11:23:30;;;;;;;18.15;10.65;;;;;;;;;;5036587;28;20040;-68
2022/01/05 11:25:58;;;;;;;14.20;11.00;;;;;;;;;;5038241;28;20024;-68
2022/01/05 11:28:25;;;;;;;14.50;11.47;;;;;;;;;;5045426;28;20041;-69
2022/01/05 11:30:53;;;;;;;10.80;9.73;;;;;;;;;;5042809;28;20499;-68
2022/01/05 11:33:20;;;;;;;12.77;10.95;;;;;;;;;;5032561;28;20123;-66
2022/01/05 11:35:46;;;;;;;11.50;10.02;;;;;;;;;;5043401;28;20356;-67
2022/01/05 11:38:12;;;;;;;11.95;10.20;;;;;;;;;;5037950;28;20048;-67
2022/01/05 11:40:45;;;;;;;11.30;10.20;;;;;;;;;;5037024;28;20045;-68
2022/01/05 11:43:15;;;;;;;13.13;10.55;;;;;;;;;;5042032;28;20039;-69
2022/01/05 11:45:47;;;;;;;12.73;9.88;;;;;;;;;;5044682;28;20040;-67
2022/01/05 11:48:16;;;;;;;11.20;10.10;;;;;;;;;;5047196;28;20036;-67
2022/01/05 11:51:00;;;;;;;11.75;10.52;;;;;;;;;;5043986;28;20033;-67
2022/01/05 11:53:43;;;;;;;10.95;9.80;;;;;;;;;;5037674;28;20033;-67
2022/01/05 11:56:12;;;;;;;13.73;10.27;;;;;;;;;;5045484;28;20041;-67
2022/01/05 11:59:00;;;;;;;10.73;9.88;;;;;;;;;;5045255;28;20545;-67
2022/01/05 12:01:26;;;;;;;10.70;9.60;;;;;;;;;;5041961;28;20064;-68
2022/01/05 12:03:52;;;;;;;19.58;10.80;;;;;;;;;;5039988;28;20065;-69
2022/01/05 12:06:21;;;;;;;13.20;10.05;;;;;;;;;;5039490;28;20036;-69
2022/01/05 12:08:49;;;;;;;12.98;10.48;;;;;;;;;;5040936;28;20094;-70
2022/01/05 12:11:30;;;;;;;14.65;11.38;;;;;;;;;;5036983;28;20037;-69
2022/01/05 12:14:23;;;;;;;13.45;10.23;;;;;;;;;;5036255;28;20210;-69
2022/01/05 12:17:01;;;;;;;13.70;11.07;;;;;;;;;;4995894;28;20045;-68
2022/01/05 12:19:28;;;;;;;11.45;10.20;;;;;;;;;;5064426;28;20049;-69
2022/01/05 12:21:55;;;;;;;15.40;10.30;;;;;;;;;;5046538;28;20329;-68
2022/01/05 12:24:22;;;;;;;11.63;10.65;;;;;;;;;;5044373;28;20040;-69
2022/01/05 12:27:21;;;;;;;11.27;9.82;;;;;;;;;;5030886;28;20029;-67
2022/01/05 12:29:48;;;;;;;13.50;11.13;;;;;;;;;;5004580;28;20101;-67
2022/01/05 12:32:39;;;;;;;12.10;10.10;;;;;;;;;;5008257;28;20186;-67
2022/01/05 12:35:15;;;;;;;17.05;10.50;;;;;;;;;;5004553;28;20132;-67
2022/01/05 12:37:58;;;;;;;13.25;10.02;;;;;;;;;;5004947;28;20056;-68
2022/01/05 12:40:33;;;;;;;11.57;9.93;;;;;;;;;;5004700;28;20042;-67
2022/01/05 12:43:08;;;;;;;13.15;9.88;;;;;;;;;;5000993;28;20045;-69
2022/01/05 12:45:43;;;;;;;11.80;9.90;;;;;;;;;;5002401;28;20644;-69
2022/01/05 12:48:40;;;;;;;14.48;10.20;;;;;;;;;;5003443;28;20046;-68
2022/01/05 12:51:20;;;;;;;11.32;10.35;;;;;;;;;;5005031;28;20076;-69
2022/01/05 12:54:03;;;;;;;13.10;10.63;;;;;;;;;;5005642;28;20046;-71
2022/01/05 12:56:39;;;;;;;11.85;9.73;;;;;;;;;;5004428;28;20373;-71
2022/01/05 12:59:08;;;;;;;11.30;9.88;;;;;;;;;;5008160;28;20128;-71
2022/01/05 13:01:34;;;;;;;13.68;9.80;;;;;;;;;;5007318;28;20048;-70
2022/01/05 13:04:02;;;;;;;11.13;9.55;;;;;;;;;;5005344;28;20567;-71
2022/01/05 13:06:30;;;;;;;13.68;9.57;;;;;;;;;;5024898;28;20493;-71
2022/01/05 13:08:58;;;;;;;10.27;9.05;;;;;;;;;;5031322;28;20036;-69
2022/01/05 13:11:50;;;;;;;11.40;9.65;;;;;;;;;;5027186;28;20044;-70
2022/01/05 13:14:31;;;;;;;14.45;9.75;;;;;;;;;;5039168;28;20053;-70
2022/01/05 13:17:03;;;;;;;12.85;10.10;;;;;;;;;;5033090;28;20033;-72
2022/01/05 13:19:39;;;;;;;14.45;10.57;;;;;;;;;;5038585;28;20036;-70
2022/01/05 13:22:26;;;;;;;12.35;10.55;;;;;;;;;;5039386;28;20120;-70
2022/01/05 13:24:52;;;;;;;14.13;10.13;;;;;;;;;;5042440;28;20075;-70
2022/01/05 13:27:23;;;;;;;12.95;10.35;;;;;;;;;;5044025;28;20064;-70
2022/01/05 13:29:49;;;;;;;10.65;9.75;;;;;;;;;;5041856;28;20036;-70
2022/01/05 13:32:19;;;;;;;14.85;10.05;;;;;;;;;;5038578;28;20040;-70
2022/01/05 13:35:08;;;;;;;13.20;10.52;;;;;;;;;;5036431;28;20041;-70
2022/01/05 13:37:46;;;;;;;12.73;9.60;;;;;;;;;;5038763;28;20067;-70
2022/01/05 13:40:27;;;;;;;11.07;9.65;;;;;;;;;;5049841;28;20370;-69
2022/01/05 13:42:57;;;;;;;10.88;9.95;;;;;;;;;;5050153;28;20278;-70
2022/01/05 13:45:30;;;;;;;16.25;10.07;;;;;;;;;;5051689;28;20112;-70
2022/01/05 13:47:57;;;;;;;11.88;10.73;;;;;;;;;;5031963;28;20044;-69
2022/01/05 13:50:32;;;;;;;12.05;10.43;;;;;;;;;;5056032;22;20067;-69
2022/01/05 13:53:01;;;;;;;12.93;10.30;;;;;;;;;;5033666;28;20051;-69
2022/01/05 13:55:39;;;;;;;12.90;11.15;;;;;;;;;;5016508;28;20037;-69
2022/01/05 13:58:17;;;;;;;12.10;10.63;;;;;;;;;;5019092;28;20030;-69
2022/01/05 14:00:47;;;;;;;13.20;10.18;;;;;;;;;;5008188;28;20038;-69
2022/01/05 14:03:45;;;;;;;12.82;10.52;;;;;;;;;;5014359;28;20107;-69
2022/01/05 14:06:25;;;;;;;12.07;10.13;;;;;;;;;;4963225;28;20521;-69
2022/01/05 14:08:56;;;;;;;12.27;10.60;;;;;;;;;;4963589;28;20467;-69
2022/01/05 14:11:22;;;;;;;11.63;10.43;;;;;;;;;;4943268;28;20387;-69
2022/01/05 14:13:52;;;;;;;12.18;10.52;;;;;;;;;;4941974;28;20130;-69
2022/01/05 14:16:38;;;;;;;15.43;10.65;;;;;;;;;;4941589;28;20043;-69
2022/01/05 14:19:12;;;;;;;13.30;10.10;;;;;;;;;;4939596;28;20055;-67
2022/01/05 14:21:47;;;;;;;11.07;9.70;;;;;;;;;;4945252;28;20043;-68
2022/01/05 14:24:16;;;;;;;11.07;9.93;;;;;;;;;;4948429;28;20054;-67
2022/01/05 14:26:41;;;;;;;11.68;10.55;;;;;;;;;;4946934;28;20035;-68
2022/01/05 14:29:08;;;;;;;11.75;10.63;;;;;;;;;;4947057;28;20066;-67
2022/01/05 14:31:40;;;;;;;11.13;10.05;;;;;;;;;;4946417;28;20133;-68
2022/01/05 14:34:18;;;;;;;11.73;10.50;;;;;;;;;;4947861;28;20058;-68